Flight Track Log - Related Links

Times and Time Zones

All times are in EST time to prevent confusion due to time zone crossing. See the SWA914 flight status page for this flight to view local times or setup timezone preferences in your user account.

Time Position Orientation Groundspeed Altitude Reporting Facility
EST Latitude Longitude Course Direction KTS MPH feet Rate Location/Type
Sat 09:32:21 AM 35.0431 -106.5767 102° East 178 205 6,200  Level Albuquerque Center
Sat 09:32:28 AM 35.0422 -106.5719 102° East 180 207 6,300 1,701 Climbing Albuquerque Center
Sat 09:33:28 AM 34.9889 -106.5597 169° South 219 252 8,100 1,879 Climbing Albuquerque Center
Sat 09:34:07 AM 34.9750 -106.5944 244° Southwest 224 258 9,400 2,164 Climbing Albuquerque Center
Sat 09:34:29 AM 34.9819 -106.6289 284° West 239 275 10,300 1,869 Climbing Albuquerque Center
Sat 09:35:08 AM 34.9919 -106.6764 284° West 248 285 11,300 1,900 Climbing Albuquerque Center
Sat 09:35:29 AM 34.9997 -106.7203 282° West 295 339 12,200 2,500 Climbing Albuquerque Center
Sat 09:36:08 AM 35.0122 -106.7775 285° West 301 346 13,800 2,640 Climbing Albuquerque Center
Sat 09:37:09 AM 35.0342 -106.8914 283° West 327 376 16,600 2,803 Climbing Albuquerque Center
Sat 09:38:10 AM 35.0600 -107.0161 284° West 347 399 19,500 2,459 Climbing Albuquerque Center
Sat 09:39:11 AM 35.0831 -107.1342 283° West 357 411 21,600 1,884 Climbing Albuquerque Center
Sat 09:40:11 AM 35.0900 -107.2639 274° West 396 456 23,300 1,835 Climbing Albuquerque Center
Sat 09:41:12 AM 35.0692 -107.4089 260° West 407 468 25,300 1,918 Climbing Albuquerque Center
Sat 09:42:13 AM 35.0522 -107.5283 260° West 407 468 27,200 2,066 Climbing Albuquerque Center
Sat 09:43:14 AM 35.0350 -107.6642 261° West 408 470 29,500 2,754 Climbing Albuquerque Center
Sat 09:44:15 AM 35.0167 -107.7892 260° West 383 441 32,800 2,281 Climbing Albuquerque Center
Sat 09:45:15 AM 35.0006 -107.9061 260° West 356 410 34,100 1,190 Climbing Albuquerque Center
Sat 09:46:16 AM 34.9833 -108.0258 260° West 356 410 35,200 934 Climbing Albuquerque Center
Sat 09:47:17 AM 34.9642 -108.1647 260° West 359 413 36,000 393 Climbing Albuquerque Center
Sat 09:48:18 AM 34.9475 -108.2822 260° West 363 418 36,000  Level Albuquerque Center
Sat 09:49:19 AM 34.9306 -108.4014 260° West 369 425 36,000  Level Albuquerque Center
Sat 09:50:19 AM 34.9097 -108.5408 260° West 373 429 36,000  Level Albuquerque Center
Sat 09:51:20 AM 34.8919 -108.6611 260° West 375 432 36,000  Level Albuquerque Center
Sat 09:52:21 AM 34.8747 -108.7814 260° West 375 432 36,000  Level Albuquerque Center
Sat 09:53:22 AM 34.8536 -108.9172 259° West 369 425 36,000  Level Albuquerque Center
Sat 09:54:23 AM 34.8353 -109.0328 259° West 365 420 36,000  Level Albuquerque Center
Sat 09:55:23 AM 34.8178 -109.1506 260° West 367 422 36,000  Level Albuquerque Center
Sat 09:56:24 AM 34.7967 -109.2900 260° West 371 427 36,000  Level Albuquerque Center
Sat 09:57:25 AM 34.7775 -109.4089 259° West 373 429 36,000  Level Albuquerque Center
Sat 09:58:26 AM 34.7603 -109.5281 260° West 373 429 36,000  Level Albuquerque Center
Sat 09:59:27 AM 34.7386 -109.6656 259° West 371 427 36,000  Level Albuquerque Center
Sat 10:00:28 AM 34.7194 -109.7858 259° West 374 430 36,000  Level Albuquerque Center
Sat 10:01:29 AM 34.6928 -109.9006 254° West 375 432 36,000  Level Albuquerque Center
Sat 10:02:30 AM 34.6442 -110.0300 245° Southwest 376 433 36,000  Level Albuquerque Center
Sat 10:03:31 AM 34.6039 -110.1433 247° West 380 437 36,000  Level Albuquerque Center
Sat 10:04:32 AM 34.5642 -110.2575 247° West 382 440 36,000 -885 Level Albuquerque Center
Sat 10:05:33 AM 34.5117 -110.3814 243° Southwest 373 429 34,200 -1,475 Descending Albuquerque Center
Sat 10:06:34 AM 34.4689 -110.5017 247° West 378 435 33,000 -1,672 Descending Albuquerque Center
Sat 10:07:35 AM 34.4269 -110.6183 246° West 381 438 30,800 -2,213 Descending Albuquerque Center
Sat 10:08:36 AM 34.3819 -110.7342 245° Southwest 382 440 28,500 -2,262 Descending Albuquerque Center
Sat 10:09:37 AM 34.3231 -110.8358 235° Southwest 374 430 26,200 -2,262 Descending Albuquerque Center
Sat 10:10:38 AM 34.2531 -110.9261 227° Southwest 368 423 23,900 -2,164 Descending Albuquerque Center
Sat 10:11:39 AM 34.1856 -111.0133 227° Southwest 360 414 21,800 -2,066 Descending Albuquerque Center
Sat 10:12:40 AM 34.1211 -111.0981 227° Southwest 349 402 19,700 -2,098 Descending Albuquerque Center
Sat 10:13:42 AM 34.0581 -111.1783 227° Southwest 336 387 17,500 -1,951 Descending Albuquerque Center
Sat 10:14:43 AM 33.9989 -111.2542 227° Southwest 320 368 15,700 -1,770 Descending Albuquerque Center
Sat 10:15:44 AM 33.9436 -111.3256 227° Southwest 297 342 13,900 -1,623 Descending Albuquerque Center
Sat 10:16:45 AM 33.8769 -111.4089 226° Southwest 287 330 12,400 -1,366 Descending Albuquerque Center
Sat 10:17:47 AM 33.8133 -111.4636 216° Southwest 281 323 11,100 -878 Descending Albuquerque Center
Sat 10:18:48 AM 33.7569 -111.5119 215° Southwest 251 289 10,600 -787 Descending Albuquerque Center
Sat 10:19:49 AM 33.6997 -111.5606 215° Southwest 249 287 9,500 -1,073 Descending Albuquerque Center
Sat 10:20:51 AM 33.6447 -111.6081 216° Southwest 243 280 8,400 -1,073 Descending Albuquerque Center
Sat 10:21:52 AM 33.5928 -111.6517 215° Southwest 230 265 7,300 -934 Descending Albuquerque Center
Sat 10:22:53 AM 33.5447 -111.6922 215° Southwest 214 246 6,500 -780 Descending Albuquerque Center
Sat 10:23:55 AM 33.5019 -111.7286 215° Southwest 192 221 5,700 -683 Descending Albuquerque Center
Sat 10:24:56 AM 33.4647 -111.7617 217° Southwest 172 198 5,100 -732 Descending Albuquerque Center
Sat 10:25:58 AM 33.4411 -111.8150 242° Southwest 181 208 4,200 -1,024 Descending Albuquerque Center
Sat 10:26:59 AM 33.4408 -111.8753 270° West 180 207 3,000 -1,107 Descending Albuquerque Center
Sat 10:27:41 AM 33.4333 -111.9167 258° West 159 183 2,300 -824 Descending Phoenix TRACON
Sat 10:28:41 AM 33.4333 -111.9667 270° West 143 165 1,600 -700 Descending Phoenix TRACON
Sat 10:31:00 AM 33.4333 -112.0000 243° Southwest  Level FlightAware Approximate

Login

Don't have an account? Register now (free) for customized features, flight alerts, and more!